createdAt,value
2023-03-24T00:01:01.827Z,2.30
2023-03-24T00:03:29.757Z,6.37
2023-03-24T00:06:02.479Z,2.30
2023-03-24T00:08:30.749Z,2.03
2023-03-24T00:11:01.718Z,1.90
2023-03-24T00:13:29.216Z,1.90
2023-03-24T00:15:55.878Z,2.20
2023-03-24T00:18:22.702Z,1.90
2023-03-24T00:20:49.279Z,2.00
2023-03-24T00:23:15.756Z,1.80
2023-03-24T00:25:42.238Z,1.90
2023-03-24T00:28:10.162Z,1.80
2023-03-24T00:30:36.673Z,2.20
2023-03-24T00:33:04.329Z,2.10
2023-03-24T00:35:31.027Z,1.87
2023-03-24T00:37:58.440Z,1.70
2023-03-24T00:40:25.119Z,2.00
2023-03-24T00:42:52.003Z,1.80
2023-03-24T00:45:20.186Z,2.07
2023-03-24T00:47:50.086Z,1.90
2023-03-24T00:50:18.250Z,2.10
2023-03-24T00:52:47.988Z,1.87
2023-03-24T00:55:15.810Z,1.90
2023-03-24T00:57:49.743Z,1.90
2023-03-24T01:00:20.345Z,1.90
2023-03-24T01:02:53.967Z,1.77
2023-03-24T01:05:21.849Z,2.00
2023-03-24T01:07:52.352Z,1.90
2023-03-24T01:10:21.726Z,1.77
2023-03-24T01:12:48.994Z,2.10
2023-03-24T01:15:17.942Z,2.00
2023-03-24T01:17:47.293Z,2.00
2023-03-24T01:20:14.205Z,1.80
2023-03-24T01:26:28.374Z,1.80
2023-03-24T01:28:55.160Z,2.00
2023-03-24T01:31:21.656Z,1.80
2023-03-24T01:33:48.288Z,2.10
2023-03-24T01:36:15.015Z,2.00
2023-03-24T01:38:41.561Z,2.20
2023-03-24T01:41:08.146Z,2.20
2023-03-24T01:43:35.535Z,1.87
2023-03-24T01:46:14.411Z,1.87
2023-03-24T01:48:41.556Z,1.90
2023-03-24T01:51:08.042Z,2.03
2023-03-24T01:53:36.834Z,1.90
2023-03-24T01:56:05.154Z,2.13
2023-03-24T01:58:33.658Z,2.13
2023-03-24T02:01:00.244Z,1.80
2023-03-24T02:03:34.351Z,2.20
2023-03-24T02:06:03.524Z,2.70
2023-03-24T02:08:39.060Z,2.20
2023-03-24T02:11:06.062Z,2.23
2023-03-24T02:13:32.673Z,2.40
2023-03-24T02:16:05.307Z,2.40
2023-03-24T02:18:54.866Z,2.70
2023-03-24T02:21:50.778Z,2.53
2023-03-24T02:24:35.506Z,2.50
2023-03-24T02:27:05.007Z,2.47
2023-03-24T02:29:49.553Z,2.70
2023-03-24T02:32:30.556Z,2.60
2023-03-24T02:39:05.045Z,2.57
2023-03-24T02:41:41.007Z,2.93
2023-03-24T02:44:26.029Z,2.60
2023-03-24T02:46:56.138Z,2.70
2023-03-24T02:49:28.632Z,2.53
2023-03-24T02:52:07.129Z,2.20
2023-03-24T02:54:39.472Z,2.63
2023-03-24T02:57:08.284Z,2.57
2023-03-24T03:00:13.177Z,2.60
2023-03-24T03:02:43.728Z,2.70
2023-03-24T03:05:14.057Z,2.90
2023-03-24T03:07:41.486Z,3.10
2023-03-24T03:10:14.461Z,2.73
2023-03-24T03:12:42.660Z,3.03
2023-03-24T03:15:14.250Z,3.23
2023-03-24T03:17:43.380Z,4.47
2023-03-24T03:20:13.471Z,3.77
2023-03-24T03:22:50.346Z,4.50
2023-03-24T03:25:20.514Z,4.60
2023-03-24T03:27:47.685Z,4.70
2023-03-24T03:30:18.454Z,5.03
2023-03-24T03:32:54.385Z,5.70
2023-03-24T03:35:33.822Z,6.93
2023-03-24T03:38:19.480Z,7.27
2023-03-24T03:40:49.254Z,7.63
2023-03-24T03:43:16.304Z,8.63
2023-03-24T03:45:43.143Z,10.77
2023-03-24T03:48:10.196Z,11.53
2023-03-24T03:50:38.171Z,11.80
2023-03-24T03:53:05.720Z,10.93
2023-03-24T03:55:32.594Z,9.73
2023-03-24T03:57:59.075Z,9.07
2023-03-24T04:00:26.321Z,8.23
2023-03-24T04:03:11.868Z,9.57
2023-03-24T04:05:46.157Z,10.03
2023-03-24T04:08:12.721Z,10.80
2023-03-24T04:10:45.627Z,9.83
2023-03-24T04:13:26.350Z,8.53
2023-03-24T04:15:59.080Z,8.27
2023-03-24T04:18:41.243Z,7.83
2023-03-24T04:24:51.814Z,9.47
2023-03-24T04:27:21.830Z,10.27
2023-03-24T04:30:03.459Z,8.37
2023-03-24T04:32:46.487Z,8.27
2023-03-24T04:35:41.016Z,7.90
2023-03-24T04:38:14.980Z,8.00
2023-03-24T04:40:42.492Z,7.80
2023-03-24T04:43:10.191Z,8.57
2023-03-24T04:45:37.031Z,8.57
2023-03-24T04:48:04.831Z,8.27
2023-03-24T04:50:43.509Z,8.57
2023-03-24T04:53:10.155Z,9.33
2023-03-24T04:55:55.036Z,8.97
2023-03-24T04:58:22.211Z,9.07
2023-03-24T05:00:49.341Z,9.13
2023-03-24T05:03:16.449Z,9.50
2023-03-24T05:05:44.139Z,10.23
2023-03-24T05:08:11.256Z,10.37
2023-03-24T05:10:37.903Z,10.50
2023-03-24T05:13:05.274Z,9.67
2023-03-24T05:15:32.175Z,10.57
2023-03-24T05:17:58.891Z,10.83
2023-03-24T05:20:26.204Z,9.97
2023-03-24T05:22:53.096Z,10.97
2023-03-24T05:25:20.153Z,12.30
2023-03-24T05:27:47.130Z,11.07
2023-03-24T05:30:14.290Z,9.97
2023-03-24T05:32:41.178Z,10.67
2023-03-24T05:35:07.899Z,9.67
2023-03-24T05:37:34.817Z,10.13
2023-03-24T05:40:01.280Z,11.30
2023-03-24T05:42:28.618Z,12.00
2023-03-24T05:44:55.274Z,11.03
2023-03-24T05:47:21.937Z,10.63
2023-03-24T05:49:48.622Z,10.20
2023-03-24T05:52:16.493Z,9.93
2023-03-24T05:54:43.132Z,9.47
2023-03-24T05:57:14.652Z,9.77
2023-03-24T05:59:41.479Z,9.17
2023-03-24T06:02:10.477Z,8.80
2023-03-24T06:04:37.126Z,7.87
2023-03-24T06:07:04.060Z,6.00
2023-03-24T06:09:37.182Z,5.90
2023-03-24T06:12:24.463Z,5.90
2023-03-24T06:14:50.924Z,5.63
2023-03-24T06:17:17.855Z,5.47
2023-03-24T06:19:50.482Z,5.37
2023-03-24T06:22:17.849Z,5.57
2023-03-24T06:24:44.767Z,5.83
2023-03-24T06:27:12.130Z,4.97
2023-03-24T06:29:38.653Z,5.33
2023-03-24T06:32:05.736Z,9.77
2023-03-24T06:34:33.446Z,8.00
2023-03-24T06:37:00.022Z,5.60
2023-03-24T06:39:26.511Z,7.40
2023-03-24T06:41:53.132Z,7.70
2023-03-24T06:44:19.550Z,7.07
2023-03-24T06:57:48.380Z,7.33
2023-03-24T07:00:14.949Z,4.23
2023-03-24T07:02:42.921Z,4.50
2023-03-24T07:05:11.061Z,4.90
2023-03-24T07:08:16.815Z,4.20
2023-03-24T07:10:24.471Z,4.37
2023-03-24T07:12:51.179Z,4.40
2023-03-24T07:15:17.730Z,3.67
2023-03-24T07:17:44.180Z,3.77
2023-03-24T07:20:10.899Z,4.00
2023-03-24T07:22:37.407Z,3.90
2023-03-24T07:25:04.989Z,3.87
2023-03-24T07:27:32.965Z,3.90
2023-03-24T07:29:59.932Z,4.30
2023-03-24T07:32:26.400Z,4.03
2023-03-24T07:34:53.067Z,3.73
2023-03-24T07:37:19.561Z,3.97
2023-03-24T07:39:46.057Z,4.03
2023-03-24T07:42:13.144Z,5.83
2023-03-24T07:44:39.979Z,12.10
2023-03-24T07:47:06.547Z,10.70
2023-03-24T07:49:36.362Z,5.63
2023-03-24T07:52:06.557Z,4.17
2023-03-24T07:54:34.295Z,4.50
2023-03-24T07:57:01.508Z,3.87
2023-03-24T07:59:28.560Z,4.50
2023-03-24T08:01:56.950Z,4.60
2023-03-24T08:04:27.970Z,4.23
2023-03-24T08:06:54.814Z,4.00
2023-03-24T08:09:24.220Z,4.00
2023-03-24T08:11:50.890Z,5.67
2023-03-24T08:14:20.449Z,21.47
2023-03-24T08:16:46.999Z,4.40
2023-03-24T08:19:13.608Z,4.20
2023-03-24T08:21:40.074Z,4.17
2023-03-24T08:24:07.045Z,5.07
2023-03-24T08:26:35.514Z,5.73
2023-03-24T08:29:03.079Z,6.30
2023-03-24T08:31:36.334Z,6.33
2023-03-24T08:34:04.757Z,5.30
2023-03-24T08:36:31.870Z,5.80
2023-03-24T08:38:58.426Z,6.17
2023-03-24T08:41:30.710Z,6.50
2023-03-24T08:43:57.163Z,32.57
2023-03-24T08:46:23.675Z,10.73
2023-03-24T08:48:50.475Z,8.53
2023-03-24T08:51:17.518Z,5.27
2023-03-24T08:53:44.320Z,4.73
2023-03-24T08:56:11.178Z,4.60
2023-03-24T08:58:37.698Z,5.30
2023-03-24T09:01:05.863Z,4.53
2023-03-24T09:03:32.369Z,4.70
2023-03-24T09:06:01.868Z,4.20
2023-03-24T09:08:28.408Z,4.70
2023-03-24T09:10:54.869Z,4.83
2023-03-24T09:13:21.485Z,4.97
2023-03-24T09:15:50.375Z,4.53
2023-03-24T09:18:17.938Z,10.83
2023-03-24T09:20:47.380Z,5.17
2023-03-24T09:23:14.509Z,4.80
2023-03-24T09:25:41.092Z,4.30
2023-03-24T09:28:08.746Z,4.70
2023-03-24T09:30:35.373Z,4.60
2023-03-24T09:33:02.233Z,4.63
2023-03-24T09:35:29.033Z,4.67
2023-03-24T09:37:55.847Z,4.50
2023-03-24T09:40:24.894Z,4.40
2023-03-24T09:42:59.995Z,4.43
2023-03-24T09:45:27.191Z,4.90
2023-03-24T09:47:57.574Z,5.57
2023-03-24T09:50:27.012Z,4.97
2023-03-24T09:52:55.382Z,4.27
2023-03-24T09:55:26.125Z,4.40
2023-03-24T09:57:55.282Z,4.20
2023-03-24T10:00:31.699Z,4.77
2023-03-24T10:02:59.938Z,10.70
2023-03-24T10:05:37.712Z,3.90
2023-03-24T10:08:28.253Z,3.90
2023-03-24T10:10:55.980Z,3.83
2023-03-24T10:13:28.959Z,4.20
2023-03-24T10:16:00.828Z,3.33
2023-03-24T10:18:47.643Z,3.67
2023-03-24T10:21:19.913Z,3.70
2023-03-24T10:23:46.588Z,4.00
2023-03-24T10:26:13.033Z,2.90
2023-03-24T10:28:44.425Z,3.47
2023-03-24T10:35:00.594Z,3.87
2023-03-24T10:37:29.193Z,3.90
2023-03-24T10:39:56.143Z,4.17
2023-03-24T10:42:26.428Z,4.00
2023-03-24T10:44:53.225Z,4.50
2023-03-24T10:47:22.671Z,4.10
2023-03-24T10:49:53.073Z,3.93
2023-03-24T10:52:19.832Z,3.50
2023-03-24T10:54:57.526Z,4.53
2023-03-24T10:57:24.765Z,3.67
2023-03-24T10:59:56.544Z,4.27
2023-03-24T11:02:28.037Z,3.40
2023-03-24T11:04:57.299Z,3.73
2023-03-24T11:07:28.525Z,4.00
2023-03-24T11:10:01.081Z,3.83
2023-03-24T11:12:27.560Z,3.63
2023-03-24T11:15:14.161Z,4.40
2023-03-24T11:17:57.305Z,4.67
2023-03-24T11:20:31.803Z,3.80
2023-03-24T11:23:11.373Z,4.00
2023-03-24T11:25:40.532Z,3.60
2023-03-24T11:28:15.545Z,3.27
2023-03-24T11:30:46.249Z,3.90
2023-03-24T11:33:20.715Z,4.20
2023-03-24T11:36:21.887Z,7.43
2023-03-24T11:38:58.206Z,3.47
2023-03-24T11:41:25.035Z,4.00
2023-03-24T11:43:51.462Z,7.47
2023-03-24T11:46:20.698Z,4.77
2023-03-24T11:48:52.454Z,7.60
2023-03-24T11:51:39.161Z,4.53
2023-03-24T11:54:10.062Z,2.67
2023-03-24T11:56:56.815Z,3.37
2023-03-24T11:59:35.443Z,2.90
2023-03-24T12:02:12.018Z,2.10
2023-03-24T12:04:38.999Z,2.43
2023-03-24T12:07:25.176Z,2.30
2023-03-24T12:09:58.288Z,2.40
2023-03-24T12:20:23.367Z,2.10
2023-03-24T12:23:10.617Z,3.73
2023-03-24T12:25:54.814Z,3.90
2023-03-24T12:28:37.747Z,4.40
2023-03-24T12:31:11.416Z,1.80
2023-03-24T12:33:44.950Z,3.17
2023-03-24T12:36:11.443Z,4.43
2023-03-24T12:38:46.885Z,3.00
2023-03-24T12:41:24.519Z,2.53
2023-03-24T12:44:06.527Z,2.70
2023-03-24T12:46:48.341Z,2.80
2023-03-24T12:49:27.517Z,3.47
2023-03-24T12:52:02.816Z,3.00
2023-03-24T12:54:38.513Z,2.60
2023-03-24T12:57:08.284Z,2.37
2023-03-24T12:59:37.547Z,2.13
2023-03-24T13:02:21.903Z,2.20
2023-03-24T13:04:49.558Z,2.20
2023-03-24T13:07:19.796Z,2.90
2023-03-24T13:10:07.077Z,1.90
2023-03-24T13:12:33.735Z,3.80
2023-03-24T13:15:06.216Z,1.90
2023-03-24T13:17:54.599Z,1.77
2023-03-24T13:20:40.409Z,2.60
2023-03-24T13:23:28.951Z,2.23
2023-03-24T13:26:06.966Z,2.43
2023-03-24T13:28:41.088Z,2.40
2023-03-24T13:31:08.985Z,4.30
2023-03-24T13:33:37.766Z,3.00
2023-03-24T13:36:22.755Z,2.60
2023-03-24T13:38:54.551Z,2.10
2023-03-24T13:41:24.222Z,2.27
2023-03-24T13:43:51.940Z,2.30
2023-03-24T13:46:18.779Z,2.80
2023-03-24T13:48:46.620Z,2.10
2023-03-24T13:51:17.105Z,1.67
2023-03-24T13:53:52.945Z,2.00
2023-03-24T13:56:24.603Z,3.23
2023-03-24T13:59:06.177Z,2.67
2023-03-24T14:01:33.089Z,2.33
2023-03-24T14:04:18.427Z,1.90
2023-03-24T14:06:51.044Z,2.60
2023-03-24T14:09:37.786Z,2.47
2023-03-24T14:12:04.225Z,6.50
2023-03-24T14:14:33.866Z,2.37
2023-03-24T14:17:06.375Z,2.67
2023-03-24T14:19:39.555Z,4.80
2023-03-24T14:22:10.682Z,2.07
2023-03-24T14:24:38.072Z,3.27
2023-03-24T14:27:29.378Z,4.93
2023-03-24T14:30:05.724Z,2.97
2023-03-24T14:32:40.774Z,2.17
2023-03-24T14:35:21.131Z,3.03
2023-03-24T14:37:55.408Z,3.27
2023-03-24T14:40:29.859Z,2.53
2023-03-24T14:43:03.347Z,2.67
2023-03-24T14:45:33.096Z,3.57
2023-03-24T14:52:04.767Z,2.70
2023-03-24T14:54:38.937Z,2.50
2023-03-24T14:57:06.499Z,2.90
2023-03-24T14:59:36.673Z,2.00
2023-03-24T15:02:13.852Z,2.00
2023-03-24T15:05:02.966Z,2.67
2023-03-24T15:07:29.501Z,2.10
2023-03-24T15:09:55.993Z,2.43
2023-03-24T15:12:22.570Z,1.70
2023-03-24T15:14:49.199Z,2.13
2023-03-24T15:17:21.128Z,1.87
2023-03-24T15:19:49.960Z,2.37
2023-03-24T15:22:16.474Z,2.20
2023-03-24T15:24:43.068Z,2.70
2023-03-24T15:27:19.259Z,2.57
2023-03-24T15:29:46.454Z,3.00
2023-03-24T15:32:22.221Z,3.43
2023-03-24T15:34:50.959Z,4.20
2023-03-24T15:37:23.834Z,4.30
2023-03-24T15:39:53.868Z,3.73
2023-03-24T15:42:24.691Z,4.60
2023-03-24T15:44:52.300Z,4.20
2023-03-24T15:47:21.679Z,4.60
2023-03-24T15:49:59.024Z,5.67
2023-03-24T15:52:28.597Z,11.43
2023-03-24T15:55:02.711Z,8.87
2023-03-24T15:57:47.169Z,3.53
2023-03-24T16:04:02.106Z,3.73
2023-03-24T16:06:30.928Z,3.10
2023-03-24T16:09:01.305Z,3.00
2023-03-24T16:11:28.645Z,8.37
2023-03-24T16:13:55.853Z,10.23
2023-03-24T16:16:29.436Z,3.80
2023-03-24T16:18:57.010Z,5.40
2023-03-24T16:21:24.924Z,3.67
2023-03-24T16:23:52.496Z,2.83
2023-03-24T16:26:19.454Z,7.47
2023-03-24T16:28:47.996Z,2.40
2023-03-24T16:31:22.018Z,5.60
2023-03-24T16:33:48.948Z,4.53
2023-03-24T16:36:15.580Z,4.20
2023-03-24T16:38:42.261Z,3.47
2023-03-24T16:44:55.733Z,2.80
2023-03-24T16:47:22.362Z,3.10
2023-03-24T16:49:48.904Z,3.10
2023-03-24T16:52:16.102Z,2.93
2023-03-24T16:54:43.638Z,2.50
2023-03-24T16:57:12.496Z,3.30
2023-03-24T16:59:43.415Z,3.00
2023-03-24T17:02:11.363Z,3.17
2023-03-24T17:04:37.897Z,5.13
2023-03-24T17:07:04.488Z,4.10
2023-03-24T17:09:32.326Z,4.30
2023-03-24T17:12:00.708Z,4.63
2023-03-24T17:14:27.509Z,4.67
2023-03-24T17:16:56.197Z,3.97
2023-03-24T17:19:24.617Z,3.93
2023-03-24T17:22:04.507Z,2.83
2023-03-24T17:24:42.275Z,2.80
2023-03-24T17:27:13.244Z,2.83
2023-03-24T17:29:39.735Z,3.50
2023-03-24T17:32:06.314Z,12.73
2023-03-24T17:34:32.804Z,12.30
2023-03-24T17:36:59.371Z,7.87
2023-03-24T17:39:25.944Z,12.60
2023-03-24T17:42:17.880Z,15.23
2023-03-24T17:44:44.323Z,8.77
2023-03-24T17:47:10.904Z,4.50
2023-03-24T17:49:37.557Z,16.10
2023-03-24T17:52:05.705Z,17.70
2023-03-24T18:05:53.161Z,4.77
2023-03-24T18:08:19.649Z,4.30
2023-03-24T18:10:46.278Z,3.23
2023-03-24T18:13:12.808Z,2.80
2023-03-24T18:15:41.622Z,3.20
2023-03-24T18:18:08.694Z,2.80
2023-03-24T18:20:38.535Z,25.27
2023-03-24T18:23:05.067Z,9.47
2023-03-24T18:25:31.749Z,3.10
2023-03-24T18:28:00.958Z,2.53
2023-03-24T18:30:27.521Z,2.80
2023-03-24T18:33:01.449Z,3.13
2023-03-24T18:35:28.390Z,5.13
2023-03-24T18:37:55.098Z,3.27
2023-03-24T18:40:21.679Z,2.77
2023-03-24T18:42:48.322Z,3.97
2023-03-24T18:45:18.479Z,4.27
2023-03-24T18:47:46.100Z,4.27
2023-03-24T18:50:12.820Z,3.40
2023-03-24T18:52:41.504Z,4.40
2023-03-24T18:55:08.594Z,4.27
2023-03-24T18:57:35.477Z,5.50
2023-03-24T19:00:02.361Z,4.00
2023-03-24T19:02:40.626Z,4.90
2023-03-24T19:05:07.493Z,4.03
2023-03-24T19:07:34.074Z,4.27
2023-03-24T19:10:00.837Z,4.60
2023-03-24T19:12:36.144Z,3.80
2023-03-24T19:15:02.795Z,4.00
2023-03-24T19:17:29.345Z,4.83
2023-03-24T19:19:58.173Z,6.97
2023-03-24T19:22:26.905Z,12.23
2023-03-24T19:24:56.962Z,4.60
2023-03-24T19:27:23.570Z,3.13
2023-03-24T19:29:50.243Z,3.17
2023-03-24T19:32:21.280Z,3.00
2023-03-24T19:34:48.135Z,3.27
2023-03-24T19:37:14.734Z,3.13
2023-03-24T19:39:41.246Z,2.70
2023-03-24T19:45:36.520Z,3.00
2023-03-24T19:48:03.967Z,3.50
2023-03-24T19:50:30.460Z,2.70
2023-03-24T19:52:56.977Z,3.87
2023-03-24T19:55:23.644Z,3.00
2023-03-24T19:57:50.309Z,3.20
2023-03-24T20:00:17.039Z,3.40
2023-03-24T20:02:43.756Z,3.73
2023-03-24T20:05:19.631Z,9.00
2023-03-24T20:07:55.887Z,3.27
2023-03-24T20:10:22.432Z,2.70
2023-03-24T20:12:50.187Z,2.60
2023-03-24T20:15:16.854Z,3.00
2023-03-24T20:18:01.947Z,3.13
2023-03-24T20:20:28.859Z,3.00
2023-03-24T20:22:55.812Z,2.87
2023-03-24T20:25:22.463Z,2.40
2023-03-24T20:27:58.260Z,2.97
2023-03-24T20:30:28.918Z,2.63
2023-03-24T20:32:59.497Z,3.00
2023-03-24T20:35:28.569Z,2.97
2023-03-24T20:37:55.289Z,2.80
2023-03-24T20:40:22.047Z,3.13
2023-03-24T20:42:48.668Z,3.10
2023-03-24T20:45:15.603Z,2.80
2023-03-24T20:47:42.676Z,2.63
2023-03-24T20:50:09.496Z,3.33
2023-03-24T20:52:36.247Z,3.23
2023-03-24T20:59:06.626Z,3.07
2023-03-24T21:01:36.986Z,3.40
2023-03-24T21:04:09.085Z,3.50
2023-03-24T21:06:38.098Z,3.53
2023-03-24T21:09:05.125Z,3.13
2023-03-24T21:11:32.167Z,3.10
2023-03-24T21:18:04.668Z,2.60
2023-03-24T21:20:31.218Z,2.60
2023-03-24T21:22:57.702Z,3.33
2023-03-24T21:25:25.850Z,3.80
2023-03-24T21:27:52.891Z,2.90
2023-03-24T21:30:19.526Z,11.13
2023-03-24T21:32:50.114Z,3.27
2023-03-24T21:35:17.171Z,2.97
2023-03-24T21:37:47.213Z,2.63
2023-03-24T21:40:16.506Z,3.60
2023-03-24T21:42:44.951Z,2.77
2023-03-24T21:45:16.074Z,3.23
2023-03-24T21:58:38.920Z,3.40
2023-03-24T22:01:05.554Z,2.40
2023-03-24T22:03:34.769Z,2.10
2023-03-24T22:06:01.372Z,2.80
2023-03-24T22:08:30.761Z,2.63
2023-03-24T22:10:58.244Z,2.80
2023-03-24T22:13:25.579Z,3.00
2023-03-24T22:15:54.894Z,3.13
2023-03-24T22:18:22.337Z,3.23
2023-03-24T22:20:52.919Z,3.17
2023-03-24T22:23:22.641Z,2.90
2023-03-24T22:25:52.877Z,3.83
2023-03-24T22:28:22.110Z,3.70
2023-03-24T22:30:48.984Z,5.03
2023-03-24T22:33:15.506Z,3.47
2023-03-24T22:35:42.123Z,2.47
2023-03-24T22:38:14.785Z,3.77
2023-03-24T22:40:42.979Z,4.40
2023-03-24T22:43:10.428Z,3.20
2023-03-24T22:45:37.244Z,4.03
2023-03-24T22:48:04.045Z,3.57
2023-03-24T22:50:30.508Z,2.87
2023-03-24T22:52:56.984Z,2.67
2023-03-24T22:55:23.535Z,2.70
2023-03-24T22:57:50.279Z,3.20
2023-03-24T23:00:19.327Z,2.40
2023-03-24T23:02:46.156Z,2.60
2023-03-24T23:05:12.849Z,2.33
2023-03-24T23:07:39.550Z,2.67
2023-03-24T23:10:08.709Z,2.77
2023-03-24T23:12:36.698Z,2.30
2023-03-24T23:15:04.612Z,2.70
2023-03-24T23:17:31.187Z,2.90
2023-03-24T23:19:57.765Z,2.50
2023-03-24T23:22:24.602Z,2.60
2023-03-24T23:24:53.856Z,2.97
2023-03-24T23:31:25.457Z,2.93
2023-03-24T23:33:53.181Z,2.90
2023-03-24T23:36:19.749Z,2.80
2023-03-24T23:38:47.653Z,2.90
2023-03-24T23:41:14.724Z,2.47
2023-03-24T23:43:44.260Z,3.00
2023-03-24T23:46:13.867Z,3.07
2023-03-24T23:48:40.969Z,2.80
2023-03-24T23:51:07.885Z,2.63
2023-03-24T23:53:35.057Z,2.60
2023-03-24T23:56:06.711Z,2.40
2023-03-24T23:58:35.184Z,2.40
